createdAt,value
2023-04-22T00:00:21.666Z,14.73
2023-04-22T00:02:49.065Z,13.63
2023-04-22T00:05:20.308Z,15.05
2023-04-22T00:07:48.122Z,16.27
2023-04-22T00:10:15.643Z,15.33
2023-04-22T00:12:42.933Z,14.15
2023-04-22T00:15:10.823Z,14.43
2023-04-22T00:17:38.230Z,14.00
2023-04-22T00:20:06.109Z,13.27
2023-04-22T00:22:33.396Z,15.67
2023-04-22T00:25:00.668Z,13.75
2023-04-22T00:27:27.988Z,15.40
2023-04-22T00:29:55.758Z,15.70
2023-04-22T00:32:23.206Z,15.68
2023-04-22T00:34:50.604Z,14.83
2023-04-22T00:37:18.017Z,13.93
2023-04-22T00:39:45.565Z,13.80
2023-04-22T00:42:14.279Z,13.68
2023-04-22T00:44:41.957Z,13.52
2023-04-22T00:47:10.247Z,13.63
2023-04-22T00:49:38.090Z,15.35
2023-04-22T00:52:05.733Z,16.63
2023-04-22T00:54:35.034Z,16.17
2023-04-22T00:57:04.015Z,14.10
2023-04-22T00:59:31.327Z,13.47
2023-04-22T01:01:58.752Z,16.05
2023-04-22T01:04:26.213Z,12.98
2023-04-22T01:06:53.872Z,12.45
2023-04-22T01:09:21.307Z,10.77
2023-04-22T01:11:48.700Z,12.40
2023-04-22T01:14:16.071Z,11.52
2023-04-22T01:16:43.901Z,12.43
2023-04-22T01:19:11.977Z,9.90
2023-04-22T01:21:40.685Z,10.57
2023-04-22T01:24:08.600Z,10.77
2023-04-22T01:26:36.312Z,11.95
2023-04-22T01:29:05.261Z,13.27
2023-04-22T01:31:32.722Z,12.13
2023-04-22T01:34:00.211Z,13.70
2023-04-22T01:36:27.828Z,13.70
2023-04-22T01:38:55.164Z,16.45
2023-04-22T01:41:22.536Z,12.95
2023-04-22T01:43:50.251Z,14.23
2023-04-22T01:46:18.352Z,11.43
2023-04-22T01:48:50.454Z,12.30
2023-04-22T01:51:20.405Z,14.02
2023-04-22T01:53:51.144Z,12.85
2023-04-22T01:56:18.673Z,13.88
2023-04-22T01:58:46.160Z,13.50
2023-04-22T02:01:14.600Z,14.83
2023-04-22T02:03:42.108Z,13.50
2023-04-22T02:06:10.371Z,14.52
2023-04-22T02:08:38.363Z,12.30
2023-04-22T02:11:05.951Z,15.15
2023-04-22T02:13:37.471Z,14.07
2023-04-22T02:16:05.067Z,14.43
2023-04-22T02:18:32.514Z,15.65
2023-04-22T02:21:00.084Z,14.52
2023-04-22T02:23:28.073Z,12.70
2023-04-22T02:25:56.056Z,14.43
2023-04-22T02:28:23.336Z,13.68
2023-04-22T02:30:50.643Z,11.95
2023-04-22T02:33:18.011Z,13.02
2023-04-22T02:35:45.332Z,14.65
2023-04-22T02:38:17.076Z,13.83
2023-04-22T02:40:44.371Z,12.93
2023-04-22T02:43:12.579Z,14.50
2023-04-22T02:45:40.953Z,16.38
2023-04-22T02:48:08.837Z,15.30
2023-04-22T02:50:38.006Z,15.73
2023-04-22T02:53:05.480Z,14.35
2023-04-22T02:55:32.893Z,14.40
2023-04-22T02:58:00.290Z,14.45
2023-04-22T03:00:27.648Z,13.43
2023-04-22T03:02:55.828Z,13.03
2023-04-22T03:05:28.800Z,14.25
2023-04-22T03:07:56.250Z,12.55
2023-04-22T03:10:23.529Z,14.75
2023-04-22T03:12:51.590Z,13.85
2023-04-22T03:15:21.422Z,13.07
2023-04-22T03:17:48.927Z,14.00
2023-04-22T03:20:17.068Z,14.23
2023-04-22T03:22:44.413Z,16.75
2023-04-22T03:25:13.453Z,16.98
2023-04-22T03:27:45.481Z,14.33
2023-04-22T03:30:12.880Z,17.50
2023-04-22T03:32:40.395Z,15.80
2023-04-22T03:35:33.838Z,14.77
2023-04-22T03:38:02.279Z,16.08
2023-04-22T03:40:33.363Z,16.90
2023-04-22T03:43:03.818Z,17.55
2023-04-22T03:45:32.106Z,19.67
2023-04-22T03:48:13.456Z,18.65
2023-04-22T03:50:46.607Z,17.58
2023-04-22T03:53:14.230Z,16.70
2023-04-22T03:55:41.618Z,18.55
2023-04-22T03:58:08.951Z,18.20
2023-04-22T04:00:36.282Z,18.52
2023-04-22T04:03:11.091Z,18.33
2023-04-22T04:05:39.555Z,18.20
2023-04-22T04:08:06.988Z,16.88
2023-04-22T04:10:34.303Z,17.88
2023-04-22T04:13:03.041Z,18.67
2023-04-22T04:15:37.442Z,17.17
2023-04-22T04:18:05.829Z,18.97
2023-04-22T04:20:33.993Z,15.77
2023-04-22T04:23:01.276Z,16.30
2023-04-22T04:25:37.688Z,16.58
2023-04-22T04:28:11.144Z,18.98
2023-04-22T04:30:38.920Z,19.20
2023-04-22T04:33:07.487Z,19.52
2023-04-22T04:35:39.577Z,21.02
2023-04-22T04:38:08.533Z,20.25
2023-04-22T04:40:37.178Z,17.50
2023-04-22T04:43:16.658Z,18.90
2023-04-22T04:45:51.531Z,20.17
2023-04-22T04:48:26.541Z,19.45
2023-04-22T04:50:59.748Z,19.98
2023-04-22T04:53:30.014Z,22.83
2023-04-22T04:55:57.365Z,23.20
2023-04-22T04:58:27.396Z,22.15
2023-04-22T05:01:08.527Z,21.20
2023-04-22T05:03:36.142Z,19.83
2023-04-22T05:06:05.310Z,20.13
2023-04-22T05:08:33.437Z,20.17
2023-04-22T05:11:06.368Z,17.30
2023-04-22T05:13:33.717Z,17.45
2023-04-22T05:16:01.515Z,16.70
2023-04-22T05:18:28.921Z,16.77
2023-04-22T05:20:59.431Z,17.17
2023-04-22T05:23:27.565Z,16.77
2023-04-22T05:25:57.444Z,18.52
2023-04-22T05:28:25.150Z,16.88
2023-04-22T05:30:55.923Z,14.93
2023-04-22T05:33:23.299Z,16.40
2023-04-22T05:35:52.417Z,16.75
2023-04-22T05:38:20.316Z,16.70
2023-04-22T05:40:47.641Z,17.70
2023-04-22T05:43:16.551Z,16.73
2023-04-22T05:45:49.450Z,19.33
2023-04-22T05:48:18.071Z,17.17
2023-04-22T05:50:56.448Z,19.80
2023-04-22T05:53:23.953Z,18.27
2023-04-22T05:55:51.608Z,17.63
2023-04-22T05:58:19.150Z,17.87
2023-04-22T06:00:54.846Z,17.77
2023-04-22T06:04:00.715Z,18.70
2023-04-22T06:06:29.098Z,19.45
2023-04-22T06:08:56.448Z,18.58
2023-04-22T06:11:23.766Z,17.50
2023-04-22T06:13:51.389Z,16.50
2023-04-22T06:16:18.839Z,18.88
2023-04-22T06:18:46.188Z,17.58
2023-04-22T06:21:13.645Z,17.65
2023-04-22T06:23:41.088Z,18.70
2023-04-22T06:26:08.510Z,17.13
2023-04-22T06:28:37.474Z,17.08
2023-04-22T06:31:12.769Z,17.23
2023-04-22T06:33:40.823Z,16.52
2023-04-22T06:36:08.927Z,18.50
2023-04-22T06:38:37.322Z,16.17
2023-04-22T06:41:24.278Z,15.75
2023-04-22T06:43:54.509Z,16.60
2023-04-22T06:46:44.634Z,16.02
2023-04-22T06:49:28.214Z,15.37
2023-04-22T06:52:18.382Z,15.93
2023-04-22T06:54:45.754Z,15.65
2023-04-22T06:57:13.234Z,16.08
2023-04-22T06:59:41.833Z,17.10
2023-04-22T07:02:10.301Z,16.63
2023-04-22T07:04:39.647Z,15.82
2023-04-22T07:07:07.510Z,16.70
2023-04-22T07:09:36.337Z,16.33
2023-04-22T07:12:03.778Z,17.15
2023-04-22T07:14:32.369Z,15.70
2023-04-22T07:16:59.968Z,14.75
2023-04-22T07:19:27.391Z,14.88
2023-04-22T07:21:54.879Z,15.93
2023-04-22T07:24:23.591Z,14.68
2023-04-22T07:26:50.997Z,15.53
2023-04-22T07:29:18.362Z,18.13
2023-04-22T07:31:45.809Z,15.15
2023-04-22T07:34:14.283Z,13.73
2023-04-22T07:36:42.035Z,14.60
2023-04-22T07:39:09.774Z,14.00
2023-04-22T07:41:37.063Z,12.93
2023-04-22T07:44:04.450Z,14.27
2023-04-22T07:46:31.754Z,13.48
2023-04-22T07:48:59.049Z,13.23
2023-04-22T07:51:26.320Z,13.80
2023-04-22T07:53:53.689Z,13.20
2023-04-22T07:56:21.354Z,13.13
2023-04-22T07:58:48.666Z,12.77
2023-04-22T08:01:18.728Z,14.07
2023-04-22T08:03:47.577Z,12.73
2023-04-22T08:06:15.221Z,13.27
2023-04-22T08:08:42.564Z,12.50
2023-04-22T08:11:09.933Z,11.95
2023-04-22T08:13:37.219Z,12.30
2023-04-22T08:16:04.699Z,11.00
2023-04-22T08:18:32.468Z,10.48
2023-04-22T08:20:59.864Z,11.48
2023-04-22T08:23:27.182Z,10.90
2023-04-22T08:25:54.424Z,11.50
2023-04-22T08:28:21.793Z,10.37
2023-04-22T08:30:49.087Z,11.10
2023-04-22T08:33:16.843Z,9.43
2023-04-22T08:35:44.155Z,9.20
2023-04-22T08:38:11.483Z,9.10
2023-04-22T08:40:42.104Z,10.20
2023-04-22T08:43:09.899Z,10.68
2023-04-22T08:45:40.576Z,10.98
2023-04-22T08:48:09.402Z,10.95
2023-04-22T08:50:39.510Z,9.60
2023-04-22T08:53:06.939Z,9.57
2023-04-22T08:55:35.710Z,10.05
2023-04-22T08:58:04.459Z,9.82
2023-04-22T09:00:32.307Z,8.60
2023-04-22T09:03:02.565Z,9.27
2023-04-22T09:05:30.877Z,8.87
2023-04-22T09:07:58.472Z,8.73
2023-04-22T09:10:26.218Z,7.82
2023-04-22T09:12:54.409Z,9.35
2023-04-22T09:15:21.785Z,9.95
2023-04-22T09:17:52.076Z,9.00
2023-04-22T09:20:19.946Z,9.10
2023-04-22T09:22:52.101Z,8.35
2023-04-22T09:25:20.630Z,9.02
2023-04-22T09:27:55.461Z,8.38
2023-04-22T09:30:29.135Z,8.07
2023-04-22T09:32:57.922Z,9.07
2023-04-22T09:35:29.490Z,8.43
2023-04-22T09:37:57.569Z,8.55
2023-04-22T09:40:24.898Z,7.85
2023-04-22T09:42:52.972Z,8.80
2023-04-22T09:45:30.908Z,9.27
2023-04-22T09:48:00.506Z,10.05
2023-04-22T09:50:28.923Z,8.30
2023-04-22T09:53:04.266Z,8.07
2023-04-22T09:55:33.415Z,8.77
2023-04-22T09:58:06.020Z,9.55
2023-04-22T10:00:33.352Z,8.55
2023-04-22T10:03:01.414Z,8.00
2023-04-22T10:05:29.737Z,8.70
2023-04-22T10:07:57.072Z,8.63
2023-04-22T10:10:24.845Z,8.90
2023-04-22T10:12:53.314Z,8.60
2023-04-22T10:15:20.683Z,8.82
2023-04-22T10:17:53.879Z,8.98
2023-04-22T10:20:25.072Z,9.27
2023-04-22T10:22:56.697Z,8.95
2023-04-22T10:25:28.862Z,8.82
2023-04-22T10:28:08.906Z,8.68
2023-04-22T10:30:41.878Z,9.70
2023-04-22T10:33:23.230Z,8.73
2023-04-22T10:36:15.388Z,8.52
2023-04-22T10:38:56.581Z,10.93
2023-04-22T10:41:26.939Z,9.95
2023-04-22T10:44:03.052Z,8.75
2023-04-22T10:46:42.514Z,9.93
2023-04-22T10:49:15.703Z,9.15
2023-04-22T10:52:14.551Z,9.82
2023-04-22T10:54:51.222Z,10.38
2023-04-22T10:57:24.982Z,9.80
2023-04-22T10:59:54.688Z,10.60
2023-04-22T11:02:23.982Z,10.73
2023-04-22T11:04:55.998Z,11.70
2023-04-22T11:07:32.366Z,11.32
2023-04-22T11:10:00.624Z,10.88
2023-04-22T11:12:43.079Z,11.43
2023-04-22T11:15:16.679Z,12.07
2023-04-22T11:17:46.626Z,10.02
2023-04-22T11:20:21.312Z,9.77
2023-04-22T11:22:51.320Z,8.60
2023-04-22T11:25:22.872Z,10.00
2023-04-22T11:27:52.256Z,10.27
2023-04-22T11:30:23.678Z,13.50
2023-04-22T11:32:54.507Z,12.65
2023-04-22T11:35:24.608Z,11.20
2023-04-22T11:37:59.751Z,10.90
2023-04-22T11:40:34.466Z,11.60
2023-04-22T11:43:05.196Z,11.30
2023-04-22T11:45:35.265Z,11.68
2023-04-22T11:48:07.569Z,12.55
2023-04-22T11:50:40.839Z,11.90
2023-04-22T11:53:19.574Z,11.38
2023-04-22T11:55:52.285Z,11.32
2023-04-22T11:58:27.413Z,12.13
2023-04-22T12:01:00.527Z,11.35
2023-04-22T12:03:30.561Z,13.10
2023-04-22T12:06:01.305Z,13.57
2023-04-22T12:08:33.640Z,12.45
2023-04-22T12:11:02.212Z,11.50
2023-04-22T12:13:32.741Z,12.52
2023-04-22T12:16:01.969Z,12.30
2023-04-22T12:18:33.704Z,14.80
2023-04-22T12:21:03.610Z,14.57
2023-04-22T12:23:33.513Z,12.95
2023-04-22T12:26:03.160Z,12.32
2023-04-22T12:28:32.584Z,12.47
2023-04-22T12:31:01.442Z,14.93
2023-04-22T12:33:30.337Z,16.00
2023-04-22T12:36:01.556Z,15.55
2023-04-22T12:38:30.681Z,14.45
2023-04-22T12:40:59.979Z,15.87
2023-04-22T12:43:33.507Z,13.80
2023-04-22T12:46:05.188Z,15.32
2023-04-22T12:48:35.562Z,15.35
2023-04-22T12:51:03.870Z,14.70
2023-04-22T12:53:32.012Z,17.27
2023-04-22T12:56:00.868Z,17.40
2023-04-22T12:58:28.933Z,16.10
2023-04-22T13:00:57.219Z,16.15
2023-04-22T13:03:25.565Z,15.30
2023-04-22T13:05:53.971Z,18.40
2023-04-22T13:08:22.199Z,16.67
2023-04-22T13:10:51.543Z,13.70
2023-04-22T13:13:20.005Z,16.05
2023-04-22T13:15:54.655Z,19.30
2023-04-22T13:18:24.180Z,16.00
2023-04-22T13:20:52.737Z,14.27
2023-04-22T13:23:22.469Z,15.73
2023-04-22T13:25:52.136Z,18.05
2023-04-22T13:28:21.460Z,18.73
2023-04-22T13:30:52.641Z,22.70
2023-04-22T13:33:23.217Z,20.00
2023-04-22T13:35:53.540Z,16.83
2023-04-22T13:38:23.980Z,15.50
2023-04-22T13:40:54.272Z,15.40
2023-04-22T13:43:23.974Z,13.87
2023-04-22T13:45:52.342Z,16.85
2023-04-22T13:48:21.222Z,15.80
2023-04-22T13:50:51.680Z,16.40
2023-04-22T13:53:20.470Z,15.27
2023-04-22T13:55:48.459Z,15.97
2023-04-22T13:58:17.249Z,16.63
2023-04-22T14:00:45.633Z,20.70
2023-04-22T14:03:17.355Z,19.90
2023-04-22T14:05:46.670Z,20.30
2023-04-22T14:08:15.576Z,20.23
2023-04-22T14:10:43.887Z,22.13
2023-04-22T14:13:15.265Z,22.70
2023-04-22T14:15:45.989Z,20.75
2023-04-22T14:18:17.536Z,22.73
2023-04-22T14:20:49.712Z,25.93
2023-04-22T14:23:20.151Z,24.58
2023-04-22T14:25:52.441Z,22.52
2023-04-22T14:28:21.240Z,23.98
2023-04-22T14:30:48.562Z,23.35
2023-04-22T14:33:15.894Z,23.07
2023-04-22T14:35:43.307Z,23.85
2023-04-22T14:38:11.213Z,23.23
2023-04-22T14:40:38.676Z,24.95
2023-04-22T14:43:07.214Z,22.90
2023-04-22T14:45:34.584Z,24.07
2023-04-22T14:48:02.092Z,23.35
2023-04-22T14:50:29.821Z,24.38
2023-04-22T14:52:57.169Z,24.20
2023-04-22T14:55:24.558Z,25.25
2023-04-22T14:57:52.805Z,26.83
2023-04-22T15:00:20.241Z,23.98
2023-04-22T15:02:47.733Z,25.00
2023-04-22T15:05:15.197Z,23.23
2023-04-22T15:07:42.519Z,22.52
2023-04-22T15:10:10.020Z,22.13
2023-04-22T15:12:37.391Z,22.83
2023-04-22T15:15:04.953Z,22.30
2023-04-22T15:17:34.528Z,20.25
2023-04-22T15:20:05.295Z,23.05
2023-04-22T15:22:33.749Z,22.53
2023-04-22T15:25:01.472Z,28.70
2023-04-22T15:27:28.817Z,24.17
2023-04-22T15:29:57.923Z,25.27
2023-04-22T15:32:25.444Z,24.20
2023-04-22T15:34:52.822Z,25.13
2023-04-22T15:37:20.206Z,23.88
2023-04-22T15:39:47.936Z,24.23
2023-04-22T15:42:15.822Z,24.42
2023-04-22T15:44:43.169Z,23.88
2023-04-22T15:47:10.752Z,24.67
2023-04-22T15:49:38.699Z,20.38
2023-04-22T15:52:06.252Z,20.70
2023-04-22T15:54:33.534Z,21.42
2023-04-22T15:57:02.036Z,23.27
2023-04-22T15:59:29.954Z,23.73
2023-04-22T16:01:58.830Z,22.15
2023-04-22T16:04:27.405Z,23.35
2023-04-22T16:06:57.626Z,21.95
2023-04-22T16:09:26.795Z,23.92
2023-04-22T16:11:57.640Z,24.40
2023-04-22T16:14:26.635Z,23.95
2023-04-22T16:16:55.217Z,25.45
2023-04-22T16:19:24.691Z,23.17
2023-04-22T16:21:53.917Z,22.92
2023-04-22T16:24:22.442Z,21.67
2023-04-22T16:26:50.270Z,23.05
2023-04-22T16:29:20.648Z,21.75
2023-04-22T16:31:48.754Z,23.88
2023-04-22T16:34:17.752Z,23.23
2023-04-22T16:36:45.713Z,22.03
2023-04-22T16:39:14.567Z,25.52
2023-04-22T16:41:43.954Z,21.92
2023-04-22T16:44:13.260Z,24.85
2023-04-22T16:46:42.193Z,23.08
2023-04-22T16:49:13.866Z,23.93
2023-04-22T16:51:44.251Z,23.67
2023-04-22T16:54:13.418Z,24.20
2023-04-22T16:56:43.833Z,25.60
2023-04-22T16:59:15.870Z,27.17
2023-04-22T17:01:44.549Z,24.77
2023-04-22T17:04:14.646Z,27.80
2023-04-22T17:06:43.357Z,27.05
2023-04-22T17:09:13.346Z,27.20
2023-04-22T17:11:41.963Z,25.08
2023-04-22T17:14:10.685Z,21.67
2023-04-22T17:16:39.063Z,25.48
2023-04-22T17:19:06.966Z,24.13
2023-04-22T17:21:35.688Z,26.88
2023-04-22T17:24:06.819Z,26.02
2023-04-22T17:26:37.620Z,27.27
2023-04-22T17:29:07.738Z,26.65
2023-04-22T17:31:35.762Z,25.75
2023-04-22T17:34:04.209Z,27.80
2023-04-22T17:36:31.864Z,24.77
2023-04-22T17:38:59.276Z,26.63
2023-04-22T17:41:26.663Z,25.33
2023-04-22T17:43:54.901Z,25.40
2023-04-22T17:46:22.297Z,29.90
2023-04-22T17:48:49.651Z,23.98
2023-04-22T17:51:16.966Z,25.60
2023-04-22T17:53:44.298Z,25.65
2023-04-22T17:56:11.645Z,27.23
2023-04-22T17:58:41.357Z,24.67
2023-04-22T18:01:15.949Z,24.90
2023-04-22T18:03:45.374Z,25.30
2023-04-22T18:06:14.960Z,28.48
2023-04-22T18:08:43.562Z,24.98
2023-04-22T18:11:12.898Z,29.73
2023-04-22T18:13:42.506Z,30.35
2023-04-22T18:16:18.554Z,28.60
2023-04-22T18:18:48.218Z,30.13
2023-04-22T18:21:17.338Z,32.70
2023-04-22T18:23:46.444Z,35.40
2023-04-22T18:26:15.648Z,33.72
2023-04-22T18:28:46.586Z,33.57
2023-04-22T18:31:15.739Z,33.95
2023-04-22T18:33:45.790Z,32.03
2023-04-22T18:36:14.511Z,35.00
2023-04-22T18:38:45.633Z,37.60
2023-04-22T18:41:15.485Z,34.70
2023-04-22T18:43:44.398Z,34.53
2023-04-22T18:46:13.262Z,35.92
2023-04-22T18:48:43.383Z,38.33
2023-04-22T18:51:13.514Z,38.42
2023-04-22T18:53:42.227Z,39.80
2023-04-22T18:56:13.002Z,39.15
2023-04-22T18:58:42.427Z,41.05
2023-04-22T19:01:10.846Z,41.40
2023-04-22T19:03:40.121Z,38.00
2023-04-22T19:06:10.447Z,37.07
2023-04-22T19:08:38.351Z,43.30
2023-04-22T19:11:06.220Z,38.63
2023-04-22T19:13:33.728Z,42.38
2023-04-22T19:16:01.372Z,42.50
2023-04-22T19:18:28.794Z,43.80
2023-04-22T19:20:56.314Z,39.58
2023-04-22T19:23:23.790Z,41.60
2023-04-22T19:25:51.642Z,46.55
2023-04-22T19:28:19.001Z,46.42
2023-04-22T19:30:46.697Z,40.83
2023-04-22T19:33:14.185Z,46.17
2023-04-22T19:35:41.594Z,42.88
2023-04-22T19:38:10.396Z,41.83
2023-04-22T19:40:37.792Z,44.50
2023-04-22T19:43:05.133Z,52.87
2023-04-22T19:45:32.517Z,49.83
2023-04-22T19:47:59.973Z,48.03
2023-04-22T19:50:27.704Z,47.10
2023-04-22T19:53:03.301Z,50.55
2023-04-22T19:55:31.120Z,47.90
2023-04-22T19:57:58.912Z,50.28
2023-04-22T20:00:26.265Z,49.33
2023-04-22T20:02:53.907Z,47.95
2023-04-22T20:05:22.276Z,53.70
2023-04-22T20:07:51.940Z,50.60
2023-04-22T20:10:22.969Z,50.42
2023-04-22T20:12:54.089Z,52.42
2023-04-22T20:15:23.007Z,51.22
2023-04-22T20:17:53.315Z,50.97
2023-04-22T20:20:22.221Z,55.13
2023-04-22T20:22:53.071Z,54.53
2023-04-22T20:25:21.917Z,56.35
2023-04-22T20:27:50.545Z,54.58
2023-04-22T20:30:19.390Z,53.92
2023-04-22T20:32:48.353Z,52.57
2023-04-22T20:35:17.280Z,50.67
2023-04-22T20:37:46.590Z,53.78
2023-04-22T20:40:15.276Z,55.05
2023-04-22T20:42:42.698Z,54.45
2023-04-22T20:45:15.063Z,54.67
2023-04-22T20:47:43.141Z,54.03
2023-04-22T20:50:10.882Z,54.15
2023-04-22T20:52:39.123Z,65.43
2023-04-22T20:55:06.782Z,61.85
2023-04-22T20:57:34.148Z,58.57
2023-04-22T21:00:01.794Z,59.03
2023-04-22T21:02:29.502Z,60.70
2023-04-22T21:04:57.697Z,61.50
2023-04-22T21:07:25.665Z,60.88
2023-04-22T21:09:53.158Z,60.57
2023-04-22T21:12:20.710Z,55.60
2023-04-22T21:14:48.684Z,61.20
2023-04-22T21:17:20.856Z,64.43
2023-04-22T21:19:49.826Z,60.78
2023-04-22T21:22:19.581Z,65.67
2023-04-22T21:24:48.448Z,63.03
2023-04-22T21:27:17.711Z,62.05
2023-04-22T21:29:46.609Z,62.17
2023-04-22T21:32:14.481Z,59.67
2023-04-22T21:34:42.205Z,60.57
2023-04-22T21:37:09.987Z,62.78
2023-04-22T21:39:37.426Z,58.83
2023-04-22T21:42:07.930Z,61.85
2023-04-22T21:44:36.524Z,65.13
2023-04-22T21:47:04.198Z,59.30
2023-04-22T21:49:31.650Z,62.92
2023-04-22T21:51:59.350Z,59.45
2023-04-22T21:54:27.742Z,60.25
2023-04-22T21:56:55.175Z,62.50
2023-04-22T21:59:24.736Z,62.60
2023-04-22T22:01:52.470Z,58.92
2023-04-22T22:04:20.018Z,61.60
2023-04-22T22:06:47.529Z,58.80
2023-04-22T22:09:15.687Z,58.45
2023-04-22T22:11:43.565Z,60.47
2023-04-22T22:14:10.966Z,58.53
2023-04-22T22:16:38.571Z,58.78
2023-04-22T22:19:07.055Z,56.70
2023-04-22T22:21:39.606Z,58.40
2023-04-22T22:24:10.659Z,60.90
2023-04-22T22:26:48.867Z,56.17
2023-04-22T22:29:20.591Z,54.13
2023-04-22T22:31:52.904Z,54.95
2023-04-22T22:34:23.326Z,56.30
2023-04-22T22:36:54.047Z,54.53
2023-04-22T22:39:23.035Z,50.72
2023-04-22T22:41:54.296Z,53.85
2023-04-22T22:44:25.474Z,58.35
2023-04-22T22:46:57.110Z,55.00
2023-04-22T22:49:26.596Z,51.65
2023-04-22T22:52:02.132Z,54.42
2023-04-22T22:54:32.402Z,57.80
2023-04-22T22:57:01.845Z,59.42
2023-04-22T22:59:31.382Z,57.85
2023-04-22T23:02:03.073Z,62.85
2023-04-22T23:04:33.875Z,59.45
2023-04-22T23:07:03.180Z,62.63
2023-04-22T23:09:36.289Z,64.13
2023-04-22T23:12:07.135Z,68.68
2023-04-22T23:14:38.218Z,68.32
2023-04-22T23:17:09.825Z,71.18
2023-04-22T23:19:42.416Z,66.57
2023-04-22T23:22:15.441Z,68.50
2023-04-22T23:24:50.021Z,66.78
2023-04-22T23:27:23.186Z,64.17
2023-04-22T23:29:52.773Z,65.35
2023-04-22T23:32:25.410Z,65.45
2023-04-22T23:34:57.898Z,66.82
2023-04-22T23:37:31.534Z,66.60
2023-04-22T23:40:02.211Z,62.90
2023-04-22T23:42:37.544Z,64.43
2023-04-22T23:45:08.093Z,65.78
2023-04-22T23:47:38.084Z,71.65
2023-04-22T23:50:14.034Z,67.50
2023-04-22T23:52:44.516Z,70.17
2023-04-22T23:55:17.932Z,71.07
2023-04-22T23:57:48.783Z,67.95
